sensor_id;sensor_type;location;lat;lon;timestamp;temperature;humidity
52621;DHT22;38515;53.160;6.990;2023-04-23T00:01:26;7.10;99.90
52621;DHT22;38515;53.160;6.990;2023-04-23T00:03:55;7.10;99.90
52621;DHT22;38515;53.160;6.990;2023-04-23T00:06:22;7.00;99.90
52621;DHT22;38515;53.160;6.990;2023-04-23T00:08:52;7.00;99.90
52621;DHT22;38515;53.160;6.990;2023-04-23T00:11:18;7.00;99.90
52621;DHT22;38515;53.160;6.990;2023-04-23T00:13:45;7.00;99.90
52621;DHT22;38515;53.160;6.990;2023-04-23T00:16:12;7.00;99.90
52621;DHT22;38515;53.160;6.990;2023-04-23T00:18:38;7.00;99.90
52621;DHT22;38515;53.160;6.990;2023-04-23T00:21:04;6.90;99.90
52621;DHT22;38515;53.160;6.990;2023-04-23T00:23:30;7.10;99.90
52621;DHT22;38515;53.160;6.990;2023-04-23T00:25:56;7.20;99.90
52621;DHT22;38515;53.160;6.990;2023-04-23T00:28:21;7.30;99.90
52621;DHT22;38515;53.160;6.990;2023-04-23T00:30:47;7.40;99.90
52621;DHT22;38515;53.160;6.990;2023-04-23T00:33:13;7.40;99.90
52621;DHT22;38515;53.160;6.990;2023-04-23T00:35:39;7.50;99.90
52621;DHT22;38515;53.160;6.990;2023-04-23T00:38:05;7.50;99.90
52621;DHT22;38515;53.160;6.990;2023-04-23T00:40:30;7.60;99.90
52621;DHT22;38515;53.160;6.990;2023-04-23T00:42:56;7.60;99.90
52621;DHT22;38515;53.160;6.990;2023-04-23T00:45:23;7.70;99.90
52621;DHT22;38515;53.160;6.990;2023-04-23T00:47:49;7.70;99.90
52621;DHT22;38515;53.160;6.990;2023-04-23T00:50:15;7.80;99.90
52621;DHT22;38515;53.160;6.990;2023-04-23T00:52:41;7.70;99.90
52621;DHT22;38515;53.160;6.990;2023-04-23T00:55:07;7.80;99.90
52621;DHT22;38515;53.160;6.990;2023-04-23T00:57:34;7.90;99.90
52621;DHT22;38515;53.160;6.990;2023-04-23T01:00:01;7.90;99.90
52621;DHT22;38515;53.160;6.990;2023-04-23T01:02:28;7.90;99.90
52621;DHT22;38515;53.160;6.990;2023-04-23T01:04:55;7.90;99.90
52621;DHT22;38515;53.160;6.990;2023-04-23T01:07:25;8.00;99.90
52621;DHT22;38515;53.160;6.990;2023-04-23T01:09:52;8.00;99.90
52621;DHT22;38515;53.160;6.990;2023-04-23T01:12:18;7.90;99.90
52621;DHT22;38515;53.160;6.990;2023-04-23T01:14:44;8.00;99.90
52621;DHT22;38515;53.160;6.990;2023-04-23T01:17:10;8.00;99.90
52621;DHT22;38515;53.160;6.990;2023-04-23T01:19:39;8.10;99.90
52621;DHT22;38515;53.160;6.990;2023-04-23T01:22:13;8.00;99.90
52621;DHT22;38515;53.160;6.990;2023-04-23T01:24:39;8.00;99.90
52621;DHT22;38515;53.160;6.990;2023-04-23T01:27:10;7.90;99.90
52621;DHT22;38515;53.160;6.990;2023-04-23T01:29:38;8.00;99.90
52621;DHT22;38515;53.160;6.990;2023-04-23T01:32:04;8.00;99.90
52621;DHT22;38515;53.160;6.990;2023-04-23T01:34:32;8.00;99.90
52621;DHT22;38515;53.160;6.990;2023-04-23T01:36:58;7.90;99.90
52621;DHT22;38515;53.160;6.990;2023-04-23T01:39:25;7.90;99.90
52621;DHT22;38515;53.160;6.990;2023-04-23T01:41:54;7.80;99.90
52621;DHT22;38515;53.160;6.990;2023-04-23T01:44:24;7.70;99.90
52621;DHT22;38515;53.160;6.990;2023-04-23T01:46:51;7.60;99.90
52621;DHT22;38515;53.160;6.990;2023-04-23T01:49:17;7.70;99.90
52621;DHT22;38515;53.160;6.990;2023-04-23T01:51:43;7.70;99.90
52621;DHT22;38515;53.160;6.990;2023-04-23T01:54:09;7.70;99.90
52621;DHT22;38515;53.160;6.990;2023-04-23T01:56:34;7.60;99.90
52621;DHT22;38515;53.160;6.990;2023-04-23T01:59:01;7.70;99.90
52621;DHT22;38515;53.160;6.990;2023-04-23T02:01:43;7.70;99.90
52621;DHT22;38515;53.160;6.990;2023-04-23T02:04:10;7.60;99.90
52621;DHT22;38515;53.160;6.990;2023-04-23T02:06:36;7.60;99.90
52621;DHT22;38515;53.160;6.990;2023-04-23T02:09:03;7.60;99.90
52621;DHT22;38515;53.160;6.990;2023-04-23T02:11:29;7.60;99.90
52621;DHT22;38515;53.160;6.990;2023-04-23T02:13:54;7.60;99.90
52621;DHT22;38515;53.160;6.990;2023-04-23T02:16:20;7.40;99.90
52621;DHT22;38515;53.160;6.990;2023-04-23T02:18:49;7.40;99.90
52621;DHT22;38515;53.160;6.990;2023-04-23T02:21:15;7.40;99.90
52621;DHT22;38515;53.160;6.990;2023-04-23T02:23:40;7.40;99.90
52621;DHT22;38515;53.160;6.990;2023-04-23T02:26:06;7.40;99.90
52621;DHT22;38515;53.160;6.990;2023-04-23T02:28:32;7.30;99.90
52621;DHT22;38515;53.160;6.990;2023-04-23T02:30:58;7.30;99.90
52621;DHT22;38515;53.160;6.990;2023-04-23T02:33:24;7.30;99.90
52621;DHT22;38515;53.160;6.990;2023-04-23T02:35:53;7.20;99.90
52621;DHT22;38515;53.160;6.990;2023-04-23T02:38:22;7.20;99.90
52621;DHT22;38515;53.160;6.990;2023-04-23T02:40:48;7.20;99.90
52621;DHT22;38515;53.160;6.990;2023-04-23T02:43:13;6.90;99.90
52621;DHT22;38515;53.160;6.990;2023-04-23T02:45:39;7.10;99.90
52621;DHT22;38515;53.160;6.990;2023-04-23T02:48:05;7.00;99.90
52621;DHT22;38515;53.160;6.990;2023-04-23T02:50:31;7.00;99.90
52621;DHT22;38515;53.160;6.990;2023-04-23T02:52:57;7.10;99.90
52621;DHT22;38515;53.160;6.990;2023-04-23T02:55:23;7.00;99.90
52621;DHT22;38515;53.160;6.990;2023-04-23T02:57:50;6.90;99.90
52621;DHT22;38515;53.160;6.990;2023-04-23T03:00:16;6.90;99.90
52621;DHT22;38515;53.160;6.990;2023-04-23T03:02:45;6.80;99.90
52621;DHT22;38515;53.160;6.990;2023-04-23T03:05:17;6.70;99.90
52621;DHT22;38515;53.160;6.990;2023-04-23T03:07:43;6.70;99.90
52621;DHT22;38515;53.160;6.990;2023-04-23T03:10:14;6.70;99.90
52621;DHT22;38515;53.160;6.990;2023-04-23T03:12:40;6.70;99.90
52621;DHT22;38515;53.160;6.990;2023-04-23T03:15:06;6.60;99.90
52621;DHT22;38515;53.160;6.990;2023-04-23T03:17:32;6.50;99.90
52621;DHT22;38515;53.160;6.990;2023-04-23T03:20:02;6.50;99.90
52621;DHT22;38515;53.160;6.990;2023-04-23T03:22:28;6.40;99.90
52621;DHT22;38515;53.160;6.990;2023-04-23T03:24:54;7.00;99.90
52621;DHT22;38515;53.160;6.990;2023-04-23T03:27:20;6.40;99.90
52621;DHT22;38515;53.160;6.990;2023-04-23T03:29:46;6.40;99.90
52621;DHT22;38515;53.160;6.990;2023-04-23T03:32:12;6.30;99.90
52621;DHT22;38515;53.160;6.990;2023-04-23T03:34:38;6.30;99.90
52621;DHT22;38515;53.160;6.990;2023-04-23T03:37:03;6.30;99.90
52621;DHT22;38515;53.160;6.990;2023-04-23T03:39:29;6.30;99.90
52621;DHT22;38515;53.160;6.990;2023-04-23T03:41:55;6.30;99.90
52621;DHT22;38515;53.160;6.990;2023-04-23T03:44:22;6.30;99.90
52621;DHT22;38515;53.160;6.990;2023-04-23T03:46:48;6.30;99.90
52621;DHT22;38515;53.160;6.990;2023-04-23T03:49:14;6.20;99.90
52621;DHT22;38515;53.160;6.990;2023-04-23T03:51:40;6.20;99.90
52621;DHT22;38515;53.160;6.990;2023-04-23T03:54:05;6.20;99.90
52621;DHT22;38515;53.160;6.990;2023-04-23T03:56:34;6.10;99.90
52621;DHT22;38515;53.160;6.990;2023-04-23T03:59:03;6.10;99.90
52621;DHT22;38515;53.160;6.990;2023-04-23T04:01:28;6.00;99.90
52621;DHT22;38515;53.160;6.990;2023-04-23T04:03:57;6.10;99.90
52621;DHT22;38515;53.160;6.990;2023-04-23T04:06:22;6.20;99.90
52621;DHT22;38515;53.160;6.990;2023-04-23T04:08:48;6.20;99.90
52621;DHT22;38515;53.160;6.990;2023-04-23T04:11:14;6.30;99.90
52621;DHT22;38515;53.160;6.990;2023-04-23T04:13:40;6.40;99.90
52621;DHT22;38515;53.160;6.990;2023-04-23T04:16:06;6.40;99.90
52621;DHT22;38515;53.160;6.990;2023-04-23T04:18:32;6.60;99.90
52621;DHT22;38515;53.160;6.990;2023-04-23T04:20:58;6.60;99.90
52621;DHT22;38515;53.160;6.990;2023-04-23T04:23:25;6.50;99.90
52621;DHT22;38515;53.160;6.990;2023-04-23T04:25:51;6.60;99.90
52621;DHT22;38515;53.160;6.990;2023-04-23T04:28:21;6.60;99.90
52621;DHT22;38515;53.160;6.990;2023-04-23T04:30:47;6.50;99.90
52621;DHT22;38515;53.160;6.990;2023-04-23T04:33:14;6.50;99.90
52621;DHT22;38515;53.160;6.990;2023-04-23T04:35:41;6.50;99.90
52621;DHT22;38515;53.160;6.990;2023-04-23T04:38:07;6.50;99.90
52621;DHT22;38515;53.160;6.990;2023-04-23T04:40:33;6.40;99.90
52621;DHT22;38515;53.160;6.990;2023-04-23T04:42:59;6.50;99.90
52621;DHT22;38515;53.160;6.990;2023-04-23T04:45:25;6.50;99.90
52621;DHT22;38515;53.160;6.990;2023-04-23T04:47:50;6.60;99.90
52621;DHT22;38515;53.160;6.990;2023-04-23T04:50:16;6.70;99.90
52621;DHT22;38515;53.160;6.990;2023-04-23T04:52:42;6.60;99.90
52621;DHT22;38515;53.160;6.990;2023-04-23T04:55:08;6.70;99.90
52621;DHT22;38515;53.160;6.990;2023-04-23T04:57:34;6.70;99.90
52621;DHT22;38515;53.160;6.990;2023-04-23T05:00:11;6.80;99.90
52621;DHT22;38515;53.160;6.990;2023-04-23T05:02:43;6.90;99.90
52621;DHT22;38515;53.160;6.990;2023-04-23T05:05:08;6.90;99.90
52621;DHT22;38515;53.160;6.990;2023-04-23T05:07:34;6.80;99.90
52621;DHT22;38515;53.160;6.990;2023-04-23T05:10:00;7.00;99.90
52621;DHT22;38515;53.160;6.990;2023-04-23T05:12:26;6.90;99.90
52621;DHT22;38515;53.160;6.990;2023-04-23T05:14:52;6.90;99.90
52621;DHT22;38515;53.160;6.990;2023-04-23T05:17:18;7.00;99.90
52621;DHT22;38515;53.160;6.990;2023-04-23T05:19:44;6.90;99.90
52621;DHT22;38515;53.160;6.990;2023-04-23T05:22:09;6.90;99.90
52621;DHT22;38515;53.160;6.990;2023-04-23T05:24:35;7.10;99.90
52621;DHT22;38515;53.160;6.990;2023-04-23T05:27:01;7.10;99.90
52621;DHT22;38515;53.160;6.990;2023-04-23T05:29:27;7.20;99.90
52621;DHT22;38515;53.160;6.990;2023-04-23T05:31:53;7.30;99.90
52621;DHT22;38515;53.160;6.990;2023-04-23T05:34:18;7.30;99.90
52621;DHT22;38515;53.160;6.990;2023-04-23T05:36:44;7.40;99.90
52621;DHT22;38515;53.160;6.990;2023-04-23T05:39:10;7.50;99.90
52621;DHT22;38515;53.160;6.990;2023-04-23T05:41:36;7.30;99.90
52621;DHT22;38515;53.160;6.990;2023-04-23T05:44:02;7.40;99.90
52621;DHT22;38515;53.160;6.990;2023-04-23T05:46:28;7.40;99.90
52621;DHT22;38515;53.160;6.990;2023-04-23T05:48:55;7.40;99.90
52621;DHT22;38515;53.160;6.990;2023-04-23T05:51:21;7.60;99.90
52621;DHT22;38515;53.160;6.990;2023-04-23T05:53:47;7.40;99.90
52621;DHT22;38515;53.160;6.990;2023-04-23T05:56:13;7.60;99.90
52621;DHT22;38515;53.160;6.990;2023-04-23T05:58:39;7.80;99.90
52621;DHT22;38515;53.160;6.990;2023-04-23T06:01:05;7.70;99.90
52621;DHT22;38515;53.160;6.990;2023-04-23T06:03:30;7.70;99.90
52621;DHT22;38515;53.160;6.990;2023-04-23T06:05:56;7.80;99.90
52621;DHT22;38515;53.160;6.990;2023-04-23T06:08:22;7.90;99.90
52621;DHT22;38515;53.160;6.990;2023-04-23T06:10:48;7.70;99.90
52621;DHT22;38515;53.160;6.990;2023-04-23T06:13:14;7.90;99.90
52621;DHT22;38515;53.160;6.990;2023-04-23T06:15:40;7.80;99.90
52621;DHT22;38515;53.160;6.990;2023-04-23T06:18:06;7.80;99.90
52621;DHT22;38515;53.160;6.990;2023-04-23T06:20:32;8.00;99.90
52621;DHT22;38515;53.160;6.990;2023-04-23T06:22:57;7.90;99.90
52621;DHT22;38515;53.160;6.990;2023-04-23T06:25:24;8.00;99.90
52621;DHT22;38515;53.160;6.990;2023-04-23T06:27:50;8.20;99.90
52621;DHT22;38515;53.160;6.990;2023-04-23T06:30:16;8.20;99.90
52621;DHT22;38515;53.160;6.990;2023-04-23T06:32:41;8.20;99.90
52621;DHT22;38515;53.160;6.990;2023-04-23T06:35:07;8.20;99.90
52621;DHT22;38515;53.160;6.990;2023-04-23T06:37:34;8.40;99.90
52621;DHT22;38515;53.160;6.990;2023-04-23T06:40:00;8.70;99.90
52621;DHT22;38515;53.160;6.990;2023-04-23T06:42:26;8.80;99.90
52621;DHT22;38515;53.160;6.990;2023-04-23T06:44:52;9.40;99.90
52621;DHT22;38515;53.160;6.990;2023-04-23T06:47:18;9.60;99.90
52621;DHT22;38515;53.160;6.990;2023-04-23T06:49:44;9.80;99.90
52621;DHT22;38515;53.160;6.990;2023-04-23T06:52:10;10.00;99.90
52621;DHT22;38515;53.160;6.990;2023-04-23T06:54:36;10.10;99.90
52621;DHT22;38515;53.160;6.990;2023-04-23T06:57:02;10.30;99.90
52621;DHT22;38515;53.160;6.990;2023-04-23T06:59:27;10.20;99.90
52621;DHT22;38515;53.160;6.990;2023-04-23T07:01:57;10.20;99.90
52621;DHT22;38515;53.160;6.990;2023-04-23T07:04:23;10.30;99.90
52621;DHT22;38515;53.160;6.990;2023-04-23T07:06:48;10.30;99.90
52621;DHT22;38515;53.160;6.990;2023-04-23T07:09:14;10.30;99.90
52621;DHT22;38515;53.160;6.990;2023-04-23T07:11:40;10.40;99.90
52621;DHT22;38515;53.160;6.990;2023-04-23T07:14:06;10.50;99.90
52621;DHT22;38515;53.160;6.990;2023-04-23T07:16:32;10.60;99.90
52621;DHT22;38515;53.160;6.990;2023-04-23T07:18:59;10.70;99.90
52621;DHT22;38515;53.160;6.990;2023-04-23T07:21:26;10.90;99.90
52621;DHT22;38515;53.160;6.990;2023-04-23T07:23:56;11.20;99.90
52621;DHT22;38515;53.160;6.990;2023-04-23T07:26:24;11.30;99.90
52621;DHT22;38515;53.160;6.990;2023-04-23T07:28:52;11.50;99.90
52621;DHT22;38515;53.160;6.990;2023-04-23T07:31:18;11.60;99.90
52621;DHT22;38515;53.160;6.990;2023-04-23T07:33:45;11.90;99.90
52621;DHT22;38515;53.160;6.990;2023-04-23T07:36:10;12.10;99.90
52621;DHT22;38515;53.160;6.990;2023-04-23T07:38:36;12.30;99.90
52621;DHT22;38515;53.160;6.990;2023-04-23T07:41:02;12.40;99.90
52621;DHT22;38515;53.160;6.990;2023-04-23T07:43:31;12.50;99.90
52621;DHT22;38515;53.160;6.990;2023-04-23T07:45:57;12.70;99.90
52621;DHT22;38515;53.160;6.990;2023-04-23T07:48:23;12.80;99.90
52621;DHT22;38515;53.160;6.990;2023-04-23T07:50:48;13.10;99.90
52621;DHT22;38515;53.160;6.990;2023-04-23T07:53:15;13.30;99.90
52621;DHT22;38515;53.160;6.990;2023-04-23T07:55:41;13.40;99.90
52621;DHT22;38515;53.160;6.990;2023-04-23T07:58:07;13.50;99.90
52621;DHT22;38515;53.160;6.990;2023-04-23T08:00:32;13.50;99.90
52621;DHT22;38515;53.160;6.990;2023-04-23T08:02:58;13.60;99.90
52621;DHT22;38515;53.160;6.990;2023-04-23T08:05:24;13.70;99.90
52621;DHT22;38515;53.160;6.990;2023-04-23T08:07:51;13.80;99.90
52621;DHT22;38515;53.160;6.990;2023-04-23T08:10:17;14.00;99.90
52621;DHT22;38515;53.160;6.990;2023-04-23T08:12:43;14.00;99.90
52621;DHT22;38515;53.160;6.990;2023-04-23T08:15:09;14.00;99.90
52621;DHT22;38515;53.160;6.990;2023-04-23T08:17:35;13.80;99.90
52621;DHT22;38515;53.160;6.990;2023-04-23T08:20:03;13.80;99.90
52621;DHT22;38515;53.160;6.990;2023-04-23T08:22:31;13.90;99.90
52621;DHT22;38515;53.160;6.990;2023-04-23T08:24:56;13.80;99.90
52621;DHT22;38515;53.160;6.990;2023-04-23T08:27:22;13.60;99.90
52621;DHT22;38515;53.160;6.990;2023-04-23T08:29:48;13.60;99.90
52621;DHT22;38515;53.160;6.990;2023-04-23T08:32:14;13.80;99.90
52621;DHT22;38515;53.160;6.990;2023-04-23T08:34:40;14.10;99.90
52621;DHT22;38515;53.160;6.990;2023-04-23T08:37:06;14.50;99.90
52621;DHT22;38515;53.160;6.990;2023-04-23T08:39:33;14.50;99.90
52621;DHT22;38515;53.160;6.990;2023-04-23T08:42:11;14.40;99.90
52621;DHT22;38515;53.160;6.990;2023-04-23T08:44:45;14.40;99.90
52621;DHT22;38515;53.160;6.990;2023-04-23T08:47:15;14.60;99.90
52621;DHT22;38515;53.160;6.990;2023-04-23T08:49:47;14.90;99.90
52621;DHT22;38515;53.160;6.990;2023-04-23T08:52:22;15.10;99.90
52621;DHT22;38515;53.160;6.990;2023-04-23T08:54:51;15.50;99.90
52621;DHT22;38515;53.160;6.990;2023-04-23T08:57:17;15.50;99.90
52621;DHT22;38515;53.160;6.990;2023-04-23T08:59:44;15.70;99.90
52621;DHT22;38515;53.160;6.990;2023-04-23T09:02:12;15.80;99.90
52621;DHT22;38515;53.160;6.990;2023-04-23T09:04:39;15.80;99.90
52621;DHT22;38515;53.160;6.990;2023-04-23T09:07:05;16.00;99.90
52621;DHT22;38515;53.160;6.990;2023-04-23T09:09:36;16.10;99.90
52621;DHT22;38515;53.160;6.990;2023-04-23T09:12:06;16.10;99.90
52621;DHT22;38515;53.160;6.990;2023-04-23T09:14:33;16.10;99.90
52621;DHT22;38515;53.160;6.990;2023-04-23T09:17:00;16.10;99.90
52621;DHT22;38515;53.160;6.990;2023-04-23T09:19:27;16.20;99.90
52621;DHT22;38515;53.160;6.990;2023-04-23T09:21:53;16.30;99.90
52621;DHT22;38515;53.160;6.990;2023-04-23T09:24:21;16.50;99.90
52621;DHT22;38515;53.160;6.990;2023-04-23T09:26:48;16.40;99.90
52621;DHT22;38515;53.160;6.990;2023-04-23T09:29:16;16.40;99.90
52621;DHT22;38515;53.160;6.990;2023-04-23T09:31:47;16.40;99.90
52621;DHT22;38515;53.160;6.990;2023-04-23T09:34:15;16.60;99.90
52621;DHT22;38515;53.160;6.990;2023-04-23T09:36:43;16.60;99.90
52621;DHT22;38515;53.160;6.990;2023-04-23T09:39:28;16.70;99.90
52621;DHT22;38515;53.160;6.990;2023-04-23T09:42:02;16.70;99.90
52621;DHT22;38515;53.160;6.990;2023-04-23T09:44:31;16.80;99.90
52621;DHT22;38515;53.160;6.990;2023-04-23T09:47:07;16.70;99.90
52621;DHT22;38515;53.160;6.990;2023-04-23T09:49:49;16.70;99.90
52621;DHT22;38515;53.160;6.990;2023-04-23T09:52:15;16.40;99.90
52621;DHT22;38515;53.160;6.990;2023-04-23T09:54:41;16.20;99.90
52621;DHT22;38515;53.160;6.990;2023-04-23T09:57:08;16.00;99.90
52621;DHT22;38515;53.160;6.990;2023-04-23T09:59:34;15.90;99.90
52621;DHT22;38515;53.160;6.990;2023-04-23T10:02:05;15.80;99.90
52621;DHT22;38515;53.160;6.990;2023-04-23T10:04:31;15.70;99.90
52621;DHT22;38515;53.160;6.990;2023-04-23T10:07:00;15.80;99.90
52621;DHT22;38515;53.160;6.990;2023-04-23T10:09:27;16.00;99.90
52621;DHT22;38515;53.160;6.990;2023-04-23T10:12:01;16.30;99.90
52621;DHT22;38515;53.160;6.990;2023-04-23T10:14:28;16.50;99.90
52621;DHT22;38515;53.160;6.990;2023-04-23T10:17:00;16.60;99.90
52621;DHT22;38515;53.160;6.990;2023-04-23T10:19:27;16.90;99.90
52621;DHT22;38515;53.160;6.990;2023-04-23T10:22:00;17.10;99.90
52621;DHT22;38515;53.160;6.990;2023-04-23T10:24:32;17.40;99.90
52621;DHT22;38515;53.160;6.990;2023-04-23T10:27:03;17.50;99.90
52621;DHT22;38515;53.160;6.990;2023-04-23T10:29:33;17.50;99.90
52621;DHT22;38515;53.160;6.990;2023-04-23T10:32:02;17.40;99.90
52621;DHT22;38515;53.160;6.990;2023-04-23T10:34:30;17.50;99.90
52621;DHT22;38515;53.160;6.990;2023-04-23T10:36:57;17.70;99.90
52621;DHT22;38515;53.160;6.990;2023-04-23T10:39:33;17.80;99.90
52621;DHT22;38515;53.160;6.990;2023-04-23T10:42:01;17.80;99.90
52621;DHT22;38515;53.160;6.990;2023-04-23T10:44:36;17.90;99.90
52621;DHT22;38515;53.160;6.990;2023-04-23T10:47:03;18.10;99.90
52621;DHT22;38515;53.160;6.990;2023-04-23T10:49:31;18.10;99.90
52621;DHT22;38515;53.160;6.990;2023-04-23T10:51:59;17.90;99.90
52621;DHT22;38515;53.160;6.990;2023-04-23T10:54:31;17.90;99.90
52621;DHT22;38515;53.160;6.990;2023-04-23T10:57:02;17.90;99.90
52621;DHT22;38515;53.160;6.990;2023-04-23T10:59:30;17.70;99.90
52621;DHT22;38515;53.160;6.990;2023-04-23T11:01:58;17.70;99.90
52621;DHT22;38515;53.160;6.990;2023-04-23T11:04:25;17.60;99.90
52621;DHT22;38515;53.160;6.990;2023-04-23T11:06:54;17.60;99.90
52621;DHT22;38515;53.160;6.990;2023-04-23T11:12:00;17.80;99.90
52621;DHT22;38515;53.160;6.990;2023-04-23T11:17:04;17.70;99.90
52621;DHT22;38515;53.160;6.990;2023-04-23T11:19:37;17.80;99.90
52621;DHT22;38515;53.160;6.990;2023-04-23T11:22:16;17.90;99.90
52621;DHT22;38515;53.160;6.990;2023-04-23T11:24:43;18.10;99.90
52621;DHT22;38515;53.160;6.990;2023-04-23T11:27:13;18.00;99.90
52621;DHT22;38515;53.160;6.990;2023-04-23T11:29:41;17.90;99.90
52621;DHT22;38515;53.160;6.990;2023-04-23T11:32:09;17.80;99.90
52621;DHT22;38515;53.160;6.990;2023-04-23T11:34:43;17.80;99.90
52621;DHT22;38515;53.160;6.990;2023-04-23T11:37:10;17.90;99.90
52621;DHT22;38515;53.160;6.990;2023-04-23T11:39:37;17.80;99.90
52621;DHT22;38515;53.160;6.990;2023-04-23T11:42:03;17.80;99.90
52621;DHT22;38515;53.160;6.990;2023-04-23T11:44:31;17.90;99.90
52621;DHT22;38515;53.160;6.990;2023-04-23T11:47:00;18.00;99.90
52621;DHT22;38515;53.160;6.990;2023-04-23T11:49:29;17.80;99.90
52621;DHT22;38515;53.160;6.990;2023-04-23T11:51:54;17.60;99.90
52621;DHT22;38515;53.160;6.990;2023-04-23T11:54:24;17.70;99.90
52621;DHT22;38515;53.160;6.990;2023-04-23T11:56:53;17.90;99.90
52621;DHT22;38515;53.160;6.990;2023-04-23T11:59:19;17.90;99.90
52621;DHT22;38515;53.160;6.990;2023-04-23T12:01:49;17.80;99.90
52621;DHT22;38515;53.160;6.990;2023-04-23T12:04:21;17.70;99.90
52621;DHT22;38515;53.160;6.990;2023-04-23T12:06:48;17.70;99.90
52621;DHT22;38515;53.160;6.990;2023-04-23T12:09:16;17.80;99.90
52621;DHT22;38515;53.160;6.990;2023-04-23T12:11:44;18.10;99.90
52621;DHT22;38515;53.160;6.990;2023-04-23T12:14:12;18.20;99.90
52621;DHT22;38515;53.160;6.990;2023-04-23T12:16:45;18.20;99.90
52621;DHT22;38515;53.160;6.990;2023-04-23T12:19:16;18.30;99.90
52621;DHT22;38515;53.160;6.990;2023-04-23T12:21:50;18.60;99.90
52621;DHT22;38515;53.160;6.990;2023-04-23T12:24:22;18.80;99.90
52621;DHT22;38515;53.160;6.990;2023-04-23T12:26:49;18.90;99.90
52621;DHT22;38515;53.160;6.990;2023-04-23T12:29:19;19.00;99.90
52621;DHT22;38515;53.160;6.990;2023-04-23T12:31:46;19.10;99.90
52621;DHT22;38515;53.160;6.990;2023-04-23T12:34:13;19.10;99.90
52621;DHT22;38515;53.160;6.990;2023-04-23T12:36:49;19.10;99.90
52621;DHT22;38515;53.160;6.990;2023-04-23T12:39:31;19.10;99.90
52621;DHT22;38515;53.160;6.990;2023-04-23T12:42:05;19.20;99.90
52621;DHT22;38515;53.160;6.990;2023-04-23T12:44:35;19.30;99.90
52621;DHT22;38515;53.160;6.990;2023-04-23T12:47:06;19.40;99.90
52621;DHT22;38515;53.160;6.990;2023-04-23T12:49:33;19.40;99.90
52621;DHT22;38515;53.160;6.990;2023-04-23T12:52:00;19.10;99.90
52621;DHT22;38515;53.160;6.990;2023-04-23T12:54:30;19.00;99.90
52621;DHT22;38515;53.160;6.990;2023-04-23T12:56:57;18.90;99.90
52621;DHT22;38515;53.160;6.990;2023-04-23T12:59:23;18.90;99.90
52621;DHT22;38515;53.160;6.990;2023-04-23T13:01:53;18.90;99.90
52621;DHT22;38515;53.160;6.990;2023-04-23T13:04:21;18.90;99.90
52621;DHT22;38515;53.160;6.990;2023-04-23T13:06:48;18.90;99.90
52621;DHT22;38515;53.160;6.990;2023-04-23T13:09:13;18.80;99.90
52621;DHT22;38515;53.160;6.990;2023-04-23T13:11:40;18.70;99.90
52621;DHT22;38515;53.160;6.990;2023-04-23T13:14:06;18.60;99.90
52621;DHT22;38515;53.160;6.990;2023-04-23T13:16:32;18.50;99.90
52621;DHT22;38515;53.160;6.990;2023-04-23T13:18:59;18.40;99.90
52621;DHT22;38515;53.160;6.990;2023-04-23T13:21:25;18.40;99.90
52621;DHT22;38515;53.160;6.990;2023-04-23T13:23:51;18.30;99.90
52621;DHT22;38515;53.160;6.990;2023-04-23T13:26:18;18.30;99.90
52621;DHT22;38515;53.160;6.990;2023-04-23T13:28:44;18.30;99.90
52621;DHT22;38515;53.160;6.990;2023-04-23T13:31:10;18.30;99.90
52621;DHT22;38515;53.160;6.990;2023-04-23T13:33:38;18.20;99.90
52621;DHT22;38515;53.160;6.990;2023-04-23T13:36:04;18.20;99.90
52621;DHT22;38515;53.160;6.990;2023-04-23T13:38:30;18.10;99.90
52621;DHT22;38515;53.160;6.990;2023-04-23T13:40:56;18.10;99.90
52621;DHT22;38515;53.160;6.990;2023-04-23T13:43:22;18.20;99.90
52621;DHT22;38515;53.160;6.990;2023-04-23T13:45:48;18.10;99.90
52621;DHT22;38515;53.160;6.990;2023-04-23T13:48:14;18.20;99.90
52621;DHT22;38515;53.160;6.990;2023-04-23T13:50:41;18.20;99.90
52621;DHT22;38515;53.160;6.990;2023-04-23T13:53:09;18.30;99.90
52621;DHT22;38515;53.160;6.990;2023-04-23T13:55:35;18.40;99.90
52621;DHT22;38515;53.160;6.990;2023-04-23T13:58:03;18.50;99.90
52621;DHT22;38515;53.160;6.990;2023-04-23T14:00:29;18.60;99.90
52621;DHT22;38515;53.160;6.990;2023-04-23T14:02:55;18.70;99.90
52621;DHT22;38515;53.160;6.990;2023-04-23T14:05:21;18.70;99.90
52621;DHT22;38515;53.160;6.990;2023-04-23T14:07:47;18.80;99.90
52621;DHT22;38515;53.160;6.990;2023-04-23T14:10:13;18.70;99.90
52621;DHT22;38515;53.160;6.990;2023-04-23T14:12:43;18.70;99.90
52621;DHT22;38515;53.160;6.990;2023-04-23T14:15:09;18.60;99.90
52621;DHT22;38515;53.160;6.990;2023-04-23T14:17:36;18.50;99.90
52621;DHT22;38515;53.160;6.990;2023-04-23T14:20:04;18.40;99.90
52621;DHT22;38515;53.160;6.990;2023-04-23T14:22:30;18.30;99.90
52621;DHT22;38515;53.160;6.990;2023-04-23T14:25:07;18.30;99.90
52621;DHT22;38515;53.160;6.990;2023-04-23T14:27:45;18.30;99.90
52621;DHT22;38515;53.160;6.990;2023-04-23T14:30:17;18.10;99.90
52621;DHT22;38515;53.160;6.990;2023-04-23T14:32:44;18.10;99.90
52621;DHT22;38515;53.160;6.990;2023-04-23T14:35:14;18.30;99.90
52621;DHT22;38515;53.160;6.990;2023-04-23T14:37:41;18.00;99.90
52621;DHT22;38515;53.160;6.990;2023-04-23T14:40:12;18.00;99.90
52621;DHT22;38515;53.160;6.990;2023-04-23T14:42:44;18.00;99.90
52621;DHT22;38515;53.160;6.990;2023-04-23T14:45:10;18.00;99.90
52621;DHT22;38515;53.160;6.990;2023-04-23T14:47:36;18.10;99.90
52621;DHT22;38515;53.160;6.990;2023-04-23T14:50:02;18.10;99.90
52621;DHT22;38515;53.160;6.990;2023-04-23T14:52:28;18.20;99.90
52621;DHT22;38515;53.160;6.990;2023-04-23T14:54:56;18.20;99.90
52621;DHT22;38515;53.160;6.990;2023-04-23T14:57:22;18.30;99.90
52621;DHT22;38515;53.160;6.990;2023-04-23T14:59:47;18.30;99.90
52621;DHT22;38515;53.160;6.990;2023-04-23T15:02:13;18.40;99.90
52621;DHT22;38515;53.160;6.990;2023-04-23T15:04:39;18.40;99.90
52621;DHT22;38515;53.160;6.990;2023-04-23T15:07:05;18.30;99.90
52621;DHT22;38515;53.160;6.990;2023-04-23T15:09:31;18.20;99.90
52621;DHT22;38515;53.160;6.990;2023-04-23T15:11:57;18.10;99.90
52621;DHT22;38515;53.160;6.990;2023-04-23T15:14:36;18.00;99.90
52621;DHT22;38515;53.160;6.990;2023-04-23T15:17:02;17.90;99.90
52621;DHT22;38515;53.160;6.990;2023-04-23T15:19:27;17.90;99.90
52621;DHT22;38515;53.160;6.990;2023-04-23T15:21:55;17.90;99.90
52621;DHT22;38515;53.160;6.990;2023-04-23T15:24:21;17.90;99.90
52621;DHT22;38515;53.160;6.990;2023-04-23T15:26:47;18.00;99.90
52621;DHT22;38515;53.160;6.990;2023-04-23T15:29:19;18.00;99.90
52621;DHT22;38515;53.160;6.990;2023-04-23T15:31:48;18.10;99.90
52621;DHT22;38515;53.160;6.990;2023-04-23T15:34:17;18.10;99.90
52621;DHT22;38515;53.160;6.990;2023-04-23T15:36:43;18.10;99.90
52621;DHT22;38515;53.160;6.990;2023-04-23T15:39:09;18.00;99.90
52621;DHT22;38515;53.160;6.990;2023-04-23T15:41:35;18.00;99.90
52621;DHT22;38515;53.160;6.990;2023-04-23T15:44:01;17.90;99.90